Time;durP1;ratioP1;P1;durP2;ratioP2;P2;SDS_P1;SDS_P2;PMS_P1;PMS_P2;Temp;Humidity;BMP_temperature;BMP_pressure;BME280_temperature;BME280_humidity;BME280_pressure;Samples;Min_cycle;Max_cycle;Signal;HPM_P1;HPM_P2
2021/06/05 00:01:25;;;;;;;8.93;8.13;;;15.90;99.90;;;;;;5037268;28;20788;-82
2021/06/05 00:03:54;;;;;;;9.37;8.60;;;15.90;99.90;;;;;;5037251;28;20390;-81
2021/06/05 00:06:24;;;;;;;8.83;8.00;;;15.80;99.90;;;;;;5037473;28;20418;-80
2021/06/05 00:08:52;;;;;;;9.73;8.30;;;15.80;99.90;;;;;;5043033;28;20438;-79
2021/06/05 00:11:22;;;;;;;9.30;7.57;;;15.80;99.90;;;;;;5057007;28;20398;-78
2021/06/05 00:13:55;;;;;;;9.33;8.43;;;15.80;99.90;;;;;;5040100;28;20395;-79
2021/06/05 00:16:28;;;;;;;8.90;8.00;;;15.80;99.90;;;;;;5056590;28;20472;-80
2021/06/05 00:18:56;;;;;;;9.87;8.97;;;15.80;99.90;;;;;;5056956;28;20466;-79
2021/06/05 00:21:26;;;;;;;11.77;9.37;;;15.70;99.90;;;;;;5057309;28;20408;-79
2021/06/05 00:23:54;;;;;;;8.73;7.87;;;15.70;99.90;;;;;;5057211;28;20387;-79
2021/06/05 00:26:21;;;;;;;9.63;8.73;;;15.70;99.90;;;;;;5056747;28;20908;-79
2021/06/05 00:28:49;;;;;;;8.50;7.30;;;15.70;99.90;;;;;;5039485;28;20518;-80
2021/06/05 00:31:17;;;;;;;9.90;9.03;;;15.70;99.90;;;;;;5056951;28;20424;-79
2021/06/05 00:33:46;;;;;;;8.53;7.67;;;15.60;99.90;;;;;;5056479;28;20413;-79
2021/06/05 00:36:14;;;;;;;9.10;8.17;;;15.60;99.90;;;;;;5056372;28;20374;-79
2021/06/05 00:38:42;;;;;;;8.30;7.07;;;15.60;99.90;;;;;;5024729;28;20504;-80
2021/06/05 00:41:13;;;;;;;8.63;7.53;;;15.50;99.90;;;;;;5021477;28;20480;-78
2021/06/05 00:43:43;;;;;;;8.73;7.50;;;15.50;99.90;;;;;;5037402;28;20379;-79
2021/06/05 00:46:12;;;;;;;8.17;7.37;;;15.40;99.90;;;;;;5035953;28;20444;-79
2021/06/05 00:48:40;;;;;;;8.80;8.00;;;15.40;99.90;;;;;;5019099;28;20461;-81
2021/06/05 00:51:10;;;;;;;9.30;8.40;;;15.30;99.90;;;;;;5019139;28;20403;-78
2021/06/05 00:53:42;;;;;;;9.37;8.43;;;15.30;99.90;;;;;;5020532;28;20423;-81
2021/06/05 00:56:17;;;;;;;10.13;8.50;;;15.30;99.90;;;;;;5037188;28;20383;-79
2021/06/05 00:58:46;;;;;;;8.60;7.60;;;15.30;99.90;;;;;;5018225;28;20440;-79
2021/06/05 01:01:17;;;;;;;9.07;8.27;;;15.30;99.90;;;;;;5034126;28;20399;-79
2021/06/05 01:03:49;;;;;;;9.77;8.50;;;15.30;99.90;;;;;;5016686;28;20445;-79
2021/06/05 01:06:24;;;;;;;9.73;8.47;;;15.30;99.90;;;;;;5034381;28;20524;-79
2021/06/05 01:08:59;;;;;;;9.43;8.53;;;15.30;99.90;;;;;;5016159;28;20467;-79
2021/06/05 01:11:43;;;;;;;7.87;7.13;;;15.30;99.90;;;;;;5015836;28;20870;-79
2021/06/05 01:14:33;;;;;;;8.83;7.10;;;15.30;99.90;;;;;;5016037;28;20410;-79
2021/06/05 01:17:06;;;;;;;8.13;7.33;;;15.30;99.90;;;;;;5016048;28;20527;-79
2021/06/05 01:19:47;;;;;;;8.63;7.70;;;15.30;99.90;;;;;;5033553;28;20379;-82
2021/06/05 01:22:37;;;;;;;10.70;7.97;;;15.30;99.90;;;;;;5015638;28;20433;-80
2021/06/05 01:25:23;;;;;;;9.13;8.20;;;15.30;99.90;;;;;;5033041;28;20533;-80
2021/06/05 01:27:56;;;;;;;7.47;6.73;;;15.30;99.90;;;;;;5020544;28;20472;-80
2021/06/05 01:30:28;;;;;;;10.23;8.83;;;15.30;99.90;;;;;;5028177;28;20432;-81
2021/06/05 01:32:58;;;;;;;7.83;7.13;;;15.30;99.90;;;;;;5045082;28;20503;-81
2021/06/05 01:35:28;;;;;;;11.03;8.43;;;15.20;99.90;;;;;;5047045;28;20438;-79
2021/06/05 01:37:56;;;;;;;8.30;7.60;;;15.20;99.90;;;;;;5033111;28;20671;-80
2021/06/05 01:40:27;;;;;;;7.77;7.07;;;15.20;99.90;;;;;;5049165;28;20400;-79
2021/06/05 01:42:58;;;;;;;8.27;7.47;;;15.30;99.90;;;;;;5047025;28;20428;-77
2021/06/05 01:45:35;;;;;;;10.03;9.03;;;15.20;99.90;;;;;;5042272;28;20597;-79
2021/06/05 01:48:05;;;;;;;14.90;7.77;;;15.20;99.90;;;;;;5039420;28;20459;-80
2021/06/05 01:50:38;;;;;;;8.83;7.93;;;15.20;99.90;;;;;;5022588;28;20428;-80
2021/06/05 01:53:14;;;;;;;7.90;7.00;;;15.20;99.90;;;;;;5022712;28;20446;-79
2021/06/05 01:55:47;;;;;;;8.00;7.30;;;15.10;99.90;;;;;;5044644;28;20383;-80
2021/06/05 01:58:20;;;;;;;9.57;7.97;;;15.10;99.90;;;;;;5032901;28;20468;-79
2021/06/05 02:00:59;;;;;;;8.93;7.60;;;15.10;99.90;;;;;;5035380;28;20792;-79
2021/06/05 02:03:33;;;;;;;7.60;6.80;;;15.10;99.90;;;;;;5052353;28;20397;-79
2021/06/05 02:06:22;;;;;;;7.33;6.63;;;15.00;99.90;;;;;;5044663;28;20419;-79
2021/06/05 02:08:54;;;;;;;9.63;7.97;;;15.00;99.90;;;;;;5039824;28;20513;-78
2021/06/05 02:11:27;;;;;;;8.57;7.77;;;15.00;99.90;;;;;;5022319;28;20415;-78
2021/06/05 02:14:06;;;;;;;8.40;7.60;;;15.00;99.90;;;;;;5021636;28;20486;-78
2021/06/05 02:16:41;;;;;;;10.67;7.80;;;14.90;99.90;;;;;;5021778;28;20995;-79
2021/06/05 02:19:13;;;;;;;11.67;9.00;;;14.90;99.90;;;;;;5039574;28;20383;-79
2021/06/05 02:21:57;;;;;;;8.80;7.77;;;14.80;99.90;;;;;;5021826;28;20776;-78
2021/06/05 02:24:31;;;;;;;9.53;8.60;;;14.70;99.90;;;;;;5020618;28;20507;-78
2021/06/05 02:27:00;;;;;;;9.93;8.30;;;14.70;99.90;;;;;;5039160;28;20473;-79
2021/06/05 02:29:41;;;;;;;9.03;8.13;;;14.60;99.90;;;;;;5021409;28;20539;-81
2021/06/05 02:32:15;;;;;;;9.90;8.13;;;14.50;99.90;;;;;;5020624;28;20806;-79
2021/06/05 02:34:47;;;;;;;9.00;8.10;;;14.40;99.90;;;;;;5038855;28;20395;-79
2021/06/05 02:37:18;;;;;;;9.43;8.53;;;14.40;99.90;;;;;;5020154;28;20460;-79
2021/06/05 02:39:48;;;;;;;8.23;7.53;;;14.30;99.90;;;;;;5020266;28;20941;-79
2021/06/05 02:42:19;;;;;;;12.80;10.10;;;14.30;99.90;;;;;;5019862;28;20450;-79
2021/06/05 02:44:52;;;;;;;9.63;8.60;;;14.30;99.90;;;;;;5020008;28;20415;-79
2021/06/05 02:47:23;;;;;;;10.80;8.73;;;14.30;99.90;;;;;;5037492;28;20825;-80
2021/06/05 02:49:52;;;;;;;8.80;8.00;;;14.30;99.90;;;;;;5038055;28;20438;-80
2021/06/05 02:52:29;;;;;;;9.57;7.83;;;14.30;99.90;;;;;;5037360;28;20432;-79
2021/06/05 02:55:15;;;;;;;9.03;8.13;;;14.40;99.90;;;;;;5020332;28;20421;-79
2021/06/05 02:57:44;;;;;;;9.27;8.30;;;14.40;99.90;;;;;;5020364;28;20509;-79
2021/06/05 03:00:32;;;;;;;10.70;9.33;;;14.50;99.90;;;;;;5038751;28;20926;-80
2021/06/05 03:03:02;;;;;;;8.00;7.30;;;14.50;99.90;;;;;;5037827;28;20423;-78
2021/06/05 03:05:31;;;;;;;7.70;7.00;;;14.50;99.90;;;;;;5038285;28;20414;-80
2021/06/05 03:08:00;;;;;;;9.27;8.33;;;14.50;99.90;;;;;;5061460;22;20466;-80
2021/06/05 03:10:31;;;;;;;8.13;7.37;;;14.60;99.90;;;;;;5020769;28;20415;-80
2021/06/05 03:13:05;;;;;;;8.20;7.50;;;14.60;99.90;;;;;;5021930;28;20437;-80
2021/06/05 03:15:35;;;;;;;8.00;7.30;;;14.70;99.90;;;;;;5021908;28;20436;-80
2021/06/05 03:18:03;;;;;;;10.37;8.27;;;14.70;99.90;;;;;;5022702;28;20454;-79
2021/06/05 03:20:33;;;;;;;8.93;8.13;;;14.70;99.90;;;;;;5022426;28;20474;-78
2021/06/05 03:23:02;;;;;;;10.60;8.03;;;14.70;99.90;;;;;;5023360;28;20922;-78
2021/06/05 03:25:32;;;;;;;9.10;8.13;;;14.80;99.90;;;;;;5041744;28;20408;-78
2021/06/05 03:28:00;;;;;;;11.30;8.57;;;14.80;99.90;;;;;;5021362;28;20437;-78
2021/06/05 03:30:29;;;;;;;9.37;8.40;;;14.90;99.90;;;;;;5020484;28;20422;-79
2021/06/05 03:32:59;;;;;;;10.17;7.67;;;14.80;99.90;;;;;;5038628;28;20407;-78
2021/06/05 03:35:29;;;;;;;8.30;7.60;;;14.90;99.90;;;;;;5020717;28;20432;-78
2021/06/05 03:37:58;;;;;;;9.27;8.37;;;15.10;99.90;;;;;;5020834;28;20438;-79
2021/06/05 03:40:30;;;;;;;9.63;8.83;;;15.60;99.90;;;;;;5021496;28;20402;-78
2021/06/05 03:42:59;;;;;;;7.73;7.07;;;16.30;99.90;;;;;;5041063;28;20383;-78
2021/06/05 03:45:28;;;;;;;9.00;8.10;;;16.90;99.90;;;;;;5022793;28;20399;-77
2021/06/05 03:47:56;;;;;;;7.30;6.60;;;17.50;99.90;;;;;;5036077;28;20490;-78
2021/06/05 03:50:32;;;;;;;7.70;7.00;;;18.30;99.90;;;;;;5015741;28;20491;-79
2021/06/05 03:53:00;;;;;;;8.67;6.27;;;19.60;99.90;;;;;;5034524;28;20443;-78
2021/06/05 03:55:30;;;;;;;7.80;7.10;;;20.60;99.90;;;;;;5016624;28;20475;-79
2021/06/05 03:57:59;;;;;;;7.40;6.70;;;21.20;99.90;;;;;;5034725;28;20423;-78
2021/06/05 04:00:30;;;;;;;8.37;7.30;;;21.50;99.90;;;;;;5017865;28;20436;-79
2021/06/05 04:02:58;;;;;;;6.93;6.03;;;21.30;99.90;;;;;;5017925;28;20941;-78
2021/06/05 04:05:28;;;;;;;7.77;6.97;;;21.50;99.90;;;;;;5034622;28;20375;-78
2021/06/05 04:07:56;;;;;;;6.77;6.17;;;22.30;99.90;;;;;;5016780;28;20454;-78
2021/06/05 04:10:25;;;;;;;7.50;6.87;;;22.90;99.90;;;;;;5016370;28;21029;-78
2021/06/05 04:12:54;;;;;;;6.43;5.93;;;23.50;99.90;;;;;;5033559;28;20492;-79
2021/06/05 04:15:24;;;;;;;7.03;6.43;;;23.70;99.90;;;;;;5019448;28;20432;-78
2021/06/05 04:17:59;;;;;;;6.40;5.90;;;23.90;99.90;;;;;;5039987;28;20520;-79
2021/06/05 04:20:29;;;;;;;7.20;6.63;;;24.00;99.90;;;;;;5016675;28;20923;-79
2021/06/05 04:22:57;;;;;;;7.97;7.17;;;23.80;99.90;;;;;;5047929;28;20379;-78
2021/06/05 04:25:25;;;;;;;7.10;6.47;;;24.80;99.90;;;;;;5057129;28;20379;-78
2021/06/05 04:27:53;;;;;;;6.60;6.00;;;25.40;99.90;;;;;;5056553;28;20458;-78
2021/06/05 04:30:23;;;;;;;7.60;6.00;;;26.00;99.90;;;;;;5056582;28;20483;-78
2021/06/05 04:32:51;;;;;;;7.20;6.50;;;26.40;99.90;;;;;;5038533;28;20500;-79
2021/06/05 04:35:20;;;;;;;6.60;6.00;;;26.70;99.90;;;;;;5031972;28;20439;-79
2021/06/05 04:37:49;;;;;;;6.30;5.63;;;26.70;99.90;;;;;;5021505;28;20434;-80
2021/06/05 04:40:17;;;;;;;7.10;6.00;;;26.70;99.90;;;;;;5038304;28;20435;-80
2021/06/05 04:42:47;;;;;;;6.87;6.27;;;26.60;99.90;;;;;;5020784;28;20465;-80
2021/06/05 04:45:16;;;;;;;6.40;5.87;;;27.30;99.90;;;;;;5037941;28;20770;-79
2021/06/05 04:47:43;;;;;;;6.10;5.50;;;27.40;99.90;;;;;;5037328;28;20419;-79
2021/06/05 04:50:14;;;;;;;5.93;5.40;;;27.60;99.90;;;;;;5019174;28;20483;-79
2021/06/05 04:52:42;;;;;;;7.13;6.53;;;28.30;99.90;;;;;;5036823;28;20879;-79
2021/06/05 04:55:13;;;;;;;6.80;6.10;;;28.80;99.90;;;;;;5038542;28;20390;-80
2021/06/05 04:57:57;;;;;;;6.50;5.57;;;29.30;99.90;;;;;;5038354;28;20462;-79
2021/06/05 05:00:28;;;;;;;6.17;5.67;;;29.20;99.90;;;;;;5020061;28;20418;-79
2021/06/05 05:02:57;;;;;;;7.33;6.63;;;28.80;99.90;;;;;;5019230;28;20432;-79
2021/06/05 05:05:25;;;;;;;6.03;5.43;;;29.10;99.90;;;;;;5037342;28;20420;-79
2021/06/05 05:07:55;;;;;;;6.80;6.23;;;28.60;99.90;;;;;;5019381;28;20543;-79
2021/06/05 05:10:28;;;;;;;8.40;6.90;;;28.70;99.90;;;;;;5019120;28;20471;-79
2021/06/05 05:12:56;;;;;;;6.97;5.63;;;28.60;99.90;;;;;;5037066;28;20515;-80
2021/06/05 05:15:25;;;;;;;8.57;6.87;;;29.30;99.90;;;;;;5020323;28;20863;-79
2021/06/05 05:17:53;;;;;;;7.17;4.67;;;29.70;99.90;;;;;;5038478;28;20467;-79
2021/06/05 05:20:24;;;;;;;6.57;6.07;;;30.00;99.90;;;;;;5020758;28;20439;-79
2021/06/05 05:22:51;;;;;;;6.60;6.00;;;30.00;99.90;;;;;;5038425;28;20447;-80
2021/06/05 05:25:19;;;;;;;5.67;5.20;;;30.30;99.90;;;;;;5038340;28;20416;-79
2021/06/05 05:27:48;;;;;;;6.07;5.57;;;29.70;99.90;;;;;;5037146;28;20536;-80
2021/06/05 05:30:20;;;;;;;5.17;4.67;;;27.70;99.90;;;;;;5020619;28;20549;-80
2021/06/05 05:32:48;;;;;;;6.07;5.57;;;27.50;99.90;;;;;;5037607;28;20911;-79
2021/06/05 05:35:16;;;;;;;5.37;4.97;;;26.80;99.90;;;;;;5037399;28;20424;-79
2021/06/05 05:37:44;;;;;;;5.87;5.27;;;25.10;99.90;;;;;;5020202;28;20438;-79
2021/06/05 05:40:14;;;;;;;6.57;5.23;;;23.30;99.90;;;;;;5020103;28;20455;-79
2021/06/05 05:42:41;;;;;;;6.20;5.60;;;22.60;99.90;;;;;;5036869;28;20430;-79
2021/06/05 05:45:12;;;;;;;6.17;5.60;;;21.90;99.90;;;;;;5037069;28;20833;-79
2021/06/05 05:47:40;;;;;;;5.50;5.00;;;21.00;99.90;;;;;;5037559;28;20435;-79
2021/06/05 05:50:10;;;;;;;5.30;4.80;;;20.60;99.90;;;;;;5019555;28;20478;-79
2021/06/05 05:52:38;;;;;;;6.53;6.00;;;20.40;99.90;;;;;;5020587;28;20555;-79
2021/06/05 05:55:07;;;;;;;5.60;5.00;;;20.40;99.90;;;;;;5019142;28;20426;-79
2021/06/05 05:57:36;;;;;;;5.50;5.00;;;20.60;99.90;;;;;;5019134;28;20462;-80
2021/06/05 06:00:06;;;;;;;5.23;4.70;;;20.50;99.90;;;;;;5036002;28;20420;-78
2021/06/05 06:02:41;;;;;;;4.27;3.87;;;20.40;99.90;;;;;;5036997;28;20401;-78
2021/06/05 06:05:10;;;;;;;6.73;5.57;;;20.50;99.90;;;;;;5019858;28;20411;-79
2021/06/05 06:07:38;;;;;;;7.17;6.47;;;20.60;99.90;;;;;;5019257;28;20446;-79
2021/06/05 06:10:09;;;;;;;4.80;4.40;;;20.70;99.90;;;;;;5018828;28;20510;-78
2021/06/05 06:12:36;;;;;;;4.73;4.03;;;20.90;99.90;;;;;;5018959;28;20422;-79
2021/06/05 06:15:06;;;;;;;5.40;4.50;;;20.90;99.90;;;;;;5022524;28;20429;-79
2021/06/05 06:17:34;;;;;;;5.57;4.90;;;21.20;99.90;;;;;;5023390;28;20454;-79
2021/06/05 06:20:04;;;;;;;4.50;4.10;;;21.30;99.90;;;;;;5022826;28;20531;-80
2021/06/05 06:22:32;;;;;;;4.70;4.30;;;21.30;99.90;;;;;;5023675;28;20462;-80
2021/06/05 06:25:02;;;;;;;5.00;4.50;;;21.20;99.90;;;;;;5023190;28;20414;-79
2021/06/05 06:27:33;;;;;;;6.00;4.97;;;21.00;99.90;;;;;;5023275;28;20492;-79
2021/06/05 06:30:00;;;;;;;9.43;4.70;;;20.90;99.90;;;;;;5040989;28;20798;-79
2021/06/05 06:32:28;;;;;;;5.93;5.43;;;20.90;99.90;;;;;;5040537;28;20450;-79
2021/06/05 06:34:55;;;;;;;5.27;4.87;;;21.20;99.90;;;;;;5041256;28;20456;-80
2021/06/05 06:37:24;;;;;;;5.07;4.57;;;21.50;99.90;;;;;;5040234;28;20411;-79
2021/06/05 06:39:52;;;;;;;5.23;4.80;;;21.50;99.90;;;;;;5041455;28;20508;-79
2021/06/05 06:42:19;;;;;;;5.37;4.73;;;21.70;99.90;;;;;;5022525;28;20429;-79
2021/06/05 06:44:47;;;;;;;5.57;4.97;;;21.80;99.90;;;;;;5040707;28;20409;-79
2021/06/05 06:47:15;;;;;;;6.07;5.23;;;21.50;99.90;;;;;;5046896;28;20422;-79
2021/06/05 06:49:42;;;;;;;4.63;4.20;;;21.60;99.90;;;;;;5052313;28;20444;-79
2021/06/05 06:52:10;;;;;;;4.77;4.37;;;21.80;99.90;;;;;;5053760;28;20447;-79
2021/06/05 06:54:42;;;;;;;5.57;4.90;;;21.80;99.90;;;;;;5050010;28;20454;-80
2021/06/05 06:57:09;;;;;;;5.70;5.13;;;21.80;99.90;;;;;;5023653;28;20475;-79
2021/06/05 06:59:37;;;;;;;5.80;5.30;;;21.90;99.90;;;;;;5023018;28;20500;-79
2021/06/05 07:02:05;;;;;;;5.40;3.90;;;22.10;99.90;;;;;;5023332;28;20439;-80
2021/06/05 07:04:33;;;;;;;5.63;5.00;;;22.10;99.90;;;;;;5022605;28;20444;-80
2021/06/05 07:07:01;;;;;;;4.87;4.47;;;22.00;99.90;;;;;;5023065;28;20445;-80
2021/06/05 07:09:29;;;;;;;4.73;4.33;;;22.30;99.90;;;;;;5049890;28;20459;-77
2021/06/05 07:11:58;;;;;;;5.00;4.27;;;22.60;99.90;;;;;;5052844;28;20451;-80
2021/06/05 07:14:26;;;;;;;4.60;4.23;;;22.60;99.90;;;;;;5045033;28;20413;-80
2021/06/05 07:16:55;;;;;;;3.60;3.30;;;22.50;99.90;;;;;;5021611;28;20527;-80
2021/06/05 07:19:22;;;;;;;5.00;4.40;;;22.20;99.90;;;;;;5039964;28;20443;-80
2021/06/05 07:21:50;;;;;;;4.50;4.10;;;22.40;99.90;;;;;;5021676;28;20487;-79
2021/06/05 07:24:18;;;;;;;4.47;4.07;;;22.50;99.90;;;;;;5042844;28;20431;-79
2021/06/05 07:26:45;;;;;;;5.30;4.80;;;22.50;99.90;;;;;;5043438;28;20430;-80
2021/06/05 07:29:14;;;;;;;5.27;4.23;;;22.40;99.90;;;;;;5043939;28;20891;-79
2021/06/05 07:31:45;;;;;;;4.43;4.13;;;22.50;99.90;;;;;;5044379;28;20472;-79
2021/06/05 07:34:14;;;;;;;4.20;3.90;;;22.70;99.90;;;;;;5034274;28;20432;-81
2021/06/05 07:36:44;;;;;;;4.27;3.87;;;22.90;99.90;;;;;;5031234;28;20474;-81
2021/06/05 07:39:14;;;;;;;3.73;3.43;;;23.00;99.90;;;;;;5044624;28;20412;-82
2021/06/05 07:41:42;;;;;;;4.07;3.50;;;23.00;99.90;;;;;;5043454;28;20387;-81
2021/06/05 07:44:16;;;;;;;4.30;3.90;;;22.70;99.90;;;;;;5023757;28;20432;-81
2021/06/05 07:46:45;;;;;;;3.37;2.87;;;22.50;99.90;;;;;;5022871;28;20469;-81
2021/06/05 07:49:14;;;;;;;5.10;3.63;;;22.60;99.90;;;;;;5026831;28;21046;-80
2021/06/05 07:51:41;;;;;;;3.70;3.40;;;22.60;99.90;;;;;;5041716;28;20517;-80
2021/06/05 07:54:10;;;;;;;4.93;4.10;;;22.90;99.90;;;;;;5041732;28;20522;-80
2021/06/05 07:56:38;;;;;;;4.27;3.80;;;23.20;99.90;;;;;;5040681;28;20395;-80
2021/06/05 07:59:05;;;;;;;10.20;7.50;;;23.50;99.90;;;;;;5038091;28;21289;-80
2021/06/05 08:01:34;;;;;;;5.20;4.27;;;23.60;99.90;;;;;;5021630;28;20961;-81
2021/06/05 08:04:02;;;;;;;4.90;4.50;;;23.80;99.90;;;;;;5024131;28;20446;-81
2021/06/05 08:06:30;;;;;;;3.80;3.50;;;24.00;99.90;;;;;;5042371;28;20431;-81
2021/06/05 08:08:59;;;;;;;4.33;4.03;;;24.20;99.90;;;;;;5022969;28;20533;-80
2021/06/05 08:11:27;;;;;;;4.60;4.20;;;24.30;99.90;;;;;;5041482;28;20463;-81
2021/06/05 08:13:55;;;;;;;5.10;4.20;;;24.30;99.90;;;;;;5043554;28;20390;-81
2021/06/05 08:16:23;;;;;;;5.23;3.67;;;24.30;99.90;;;;;;5024097;28;20432;-81
2021/06/05 08:18:52;;;;;;;3.70;3.40;;;24.30;99.90;;;;;;5042227;28;20451;-81
2021/06/05 08:21:21;;;;;;;3.97;3.67;;;23.80;99.90;;;;;;5025997;28;20440;-81
2021/06/05 08:23:49;;;;;;;3.90;3.60;;;23.70;99.90;;;;;;5023157;28;20419;-82
2021/06/05 08:26:18;;;;;;;4.60;4.20;;;24.00;99.90;;;;;;5019286;28;20441;-80
2021/06/05 08:28:46;;;;;;;4.70;4.20;;;24.10;99.90;;;;;;5035498;28;20473;-80
2021/06/05 08:31:16;;;;;;;4.20;3.80;;;24.20;99.90;;;;;;5042649;28;20498;-81
2021/06/05 08:33:44;;;;;;;4.60;4.20;;;24.30;99.90;;;;;;5023240;28;20436;-81
2021/06/05 08:36:14;;;;;;;3.87;3.60;;;24.40;99.90;;;;;;5024277;28;20443;-81
2021/06/05 08:38:42;;;;;;;5.13;4.00;;;24.50;99.90;;;;;;5023552;28;20456;-81
2021/06/05 08:41:22;;;;;;;5.30;3.63;;;24.30;99.90;;;;;;5026473;28;20403;-81
2021/06/05 08:43:53;;;;;;;5.33;4.23;;;24.30;99.90;;;;;;5024746;28;20517;-80
2021/06/05 08:46:25;;;;;;;4.47;4.07;;;24.20;99.90;;;;;;5024279;28;20522;-80
2021/06/05 08:48:56;;;;;;;4.40;4.00;;;24.00;99.90;;;;;;5044906;28;20507;-82
2021/06/05 08:51:35;;;;;;;4.57;4.20;;;23.90;99.90;;;;;;5029139;28;20569;-81
2021/06/05 08:54:16;;;;;;;3.87;3.53;;;23.90;99.90;;;;;;5029530;28;20436;-81
2021/06/05 08:56:45;;;;;;;4.70;4.17;;;24.10;99.90;;;;;;5048673;28;20416;-80
2021/06/05 08:59:18;;;;;;;5.07;4.53;;;24.30;99.90;;;;;;5049538;28;20444;-80
2021/06/05 09:01:47;;;;;;;3.97;3.57;;;24.30;99.90;;;;;;5032232;28;20448;-81
2021/06/05 09:04:18;;;;;;;3.87;3.57;;;24.10;99.90;;;;;;5032896;28;20418;-81
2021/06/05 09:06:53;;;;;;;4.50;4.10;;;24.00;99.90;;;;;;5033620;28;20444;-80
2021/06/05 09:09:25;;;;;;;4.80;4.40;;;24.10;99.90;;;;;;5068137;23;21030;-85
2021/06/05 09:11:53;;;;;;;4.40;4.00;;;24.30;99.90;;;;;;5044697;28;20474;-84
2021/06/05 09:14:21;;;;;;;4.23;3.83;;;24.50;99.90;;;;;;5040872;28;20781;-85
2021/06/05 09:16:50;;;;;;;4.10;3.80;;;24.70;99.90;;;;;;5041489;28;20882;-85
2021/06/05 09:19:28;;;;;;;5.63;5.13;;;24.60;99.90;;;;;;5040183;28;20447;-84
2021/06/05 09:22:16;;;;;;;4.43;3.97;;;24.70;99.90;;;;;;5041082;28;20402;-84
2021/06/05 09:24:47;;;;;;;4.53;4.23;;;24.90;99.90;;;;;;5039375;28;20435;-85
2021/06/05 09:27:25;;;;;;;4.57;4.20;;;24.90;99.90;;;;;;5040601;28;20456;-84
2021/06/05 09:30:00;;;;;;;4.20;3.77;;;24.80;99.90;;;;;;5042133;28;20487;-84
2021/06/05 09:32:29;;;;;;;4.57;3.97;;;25.00;99.90;;;;;;5045596;28;20419;-85
2021/06/05 09:35:13;;;;;;;5.03;4.17;;;25.30;99.90;;;;;;5042906;28;20452;-85
2021/06/05 09:37:45;;;;;;;5.57;5.17;;;25.40;99.90;;;;;;5040322;28;20452;-85
2021/06/05 09:40:23;;;;;;;5.27;4.60;;;25.30;99.90;;;;;;5040917;28;20432;-85
2021/06/05 09:42:55;;;;;;;4.43;4.03;;;25.40;99.90;;;;;;5041814;28;20432;-85
2021/06/05 09:45:44;;;;;;;5.47;5.03;;;25.30;99.90;;;;;;5043243;28;20438;-85
2021/06/05 09:48:27;;;;;;;5.43;4.97;;;25.10;99.90;;;;;;5056113;28;20434;-85
2021/06/05 09:51:01;;;;;;;4.70;4.40;;;25.20;99.90;;;;;;5058373;28;20468;-83
2021/06/05 09:53:33;;;;;;;4.20;3.90;;;25.40;99.90;;;;;;5059122;28;20416;-84
2021/06/05 09:56:22;;;;;;;5.17;4.43;;;25.50;99.90;;;;;;5059321;28;20439;-83
2021/06/05 09:59:06;;;;;;;4.90;4.40;;;25.90;99.90;;;;;;5058072;28;20438;-84
2021/06/05 10:01:36;;;;;;;3.80;3.50;;;26.00;99.90;;;;;;5059192;28;20468;-85
2021/06/05 10:04:17;;;;;;;5.20;4.77;;;26.10;99.90;;;;;;5051865;28;20434;-85
2021/06/05 10:06:48;;;;;;;5.27;4.87;;;26.20;99.90;;;;;;5042371;28;20431;-84
2021/06/05 10:09:39;;;;;;;4.57;4.17;;;26.30;99.90;;;;;;5041460;28;20997;-85
2021/06/05 10:12:10;;;;;;;5.40;4.30;;;26.60;99.90;;;;;;5040290;28;20993;-84
2021/06/05 10:14:58;;;;;;;4.20;3.90;;;26.90;99.90;;;;;;5041090;28;20500;-83
2021/06/05 10:17:35;;;;;;;4.90;4.50;;;26.80;99.90;;;;;;5041301;28;20424;-84
2021/06/05 10:20:18;;;;;;;5.67;4.07;;;26.60;99.90;;;;;;5039999;28;20424;-85
2021/06/05 10:22:49;;;;;;;5.17;4.67;;;26.70;99.90;;;;;;5040869;28;20941;-85
2021/06/05 10:25:30;;;;;;;4.37;3.97;;;26.80;99.90;;;;;;5040913;28;20432;-85
2021/06/05 10:28:03;;;;;;;4.70;4.30;;;27.00;99.90;;;;;;5039420;28;20455;-84
2021/06/05 10:30:41;;;;;;;4.40;3.80;;;26.80;99.90;;;;;;5039976;28;21002;-85
2021/06/05 10:33:15;;;;;;;3.63;3.43;;;26.80;99.90;;;;;;5040824;28;20487;-83
2021/06/05 10:35:44;;;;;;;4.53;4.13;;;26.50;99.90;;;;;;5042163;28;20416;-84
2021/06/05 10:38:17;;;;;;;5.10;4.70;;;26.50;99.90;;;;;;5040470;28;20450;-84
2021/06/05 10:40:47;;;;;;;4.70;4.30;;;26.40;99.90;;;;;;5039834;28;20906;-86
2021/06/05 10:43:15;;;;;;;5.50;5.10;;;26.50;99.90;;;;;;5039940;28;20451;-85
2021/06/05 10:45:47;;;;;;;6.60;5.67;;;26.80;99.90;;;;;;5038997;28;20431;-85
2021/06/05 10:48:23;;;;;;;4.97;4.57;;;26.90;99.90;;;;;;5036847;28;20457;-85
2021/06/05 10:51:01;;;;;;;5.60;5.10;;;27.10;99.90;;;;;;5038760;28;20473;-84
2021/06/05 10:53:33;;;;;;;5.10;4.70;;;27.10;99.90;;;;;;5036716;28;20431;-85
2021/06/05 10:56:15;;;;;;;5.33;4.87;;;27.00;99.90;;;;;;5038873;28;20490;-86
2021/06/05 10:58:46;;;;;;;4.90;4.50;;;26.80;99.90;;;;;;5041452;28;20498;-85
2021/06/05 11:01:46;;;;;;;4.83;4.43;;;26.40;99.90;;;;;;5047145;28;20402;-85
2021/06/05 11:04:50;;;;;;;4.90;4.50;;;26.40;99.90;;;;;;5051830;28;20472;-83
2021/06/05 11:07:28;;;;;;;5.90;4.10;;;26.40;99.90;;;;;;5048655;28;20858;-84
2021/06/05 11:09:59;;;;;;;5.33;4.93;;;26.10;99.90;;;;;;5050506;28;20439;-86
2021/06/05 11:12:49;;;;;;;5.17;4.70;;;26.20;99.90;;;;;;5049633;28;20464;-84
2021/06/05 11:15:58;;;;;;;4.50;4.10;;;26.30;99.90;;;;;;5048085;28;20402;-85
2021/06/05 11:18:34;;;;;;;5.57;5.07;;;26.40;99.90;;;;;;5043952;28;20458;-86
2021/06/05 11:21:35;;;;;;;5.30;4.80;;;26.40;99.90;;;;;;5044763;28;20455;-85
2021/06/05 11:24:20;;;;;;;5.10;4.60;;;26.60;99.90;;;;;;5047977;28;20770;-86
2021/06/05 11:26:51;;;;;;;4.70;4.30;;;26.60;99.90;;;;;;5044964;28;20546;-85
2021/06/05 11:29:53;;;;;;;4.70;4.30;;;26.70;99.90;;;;;;5046886;28;20483;-86
2021/06/05 11:32:50;;;;;;;4.97;4.57;;;26.90;99.90;;;;;;5046025;28;20472;-86
2021/06/05 11:35:48;;;;;;;4.30;3.97;;;27.00;99.90;;;;;;5053184;28;20423;-85
2021/06/05 11:38:47;;;;;;;5.50;5.07;;;27.30;99.90;;;;;;5052216;28;20591;-84
2021/06/05 11:41:53;;;;;;;4.60;4.20;;;27.10;99.90;;;;;;5047989;28;20952;-85
2021/06/05 11:44:26;;;;;;;7.10;4.83;;;26.90;99.90;;;;;;5038043;28;20821;-85
2021/06/05 11:47:00;;;;;;;4.80;4.40;;;26.60;99.90;;;;;;5036948;28;20454;-85
2021/06/05 11:49:50;;;;;;;4.93;4.53;;;26.50;99.90;;;;;;5037840;28;20466;-85
2021/06/05 11:52:50;;;;;;;4.70;4.30;;;26.60;99.90;;;;;;5038188;28;21012;-85
2021/06/05 11:55:37;;;;;;;4.87;4.37;;;26.70;99.90;;;;;;5038616;28;20949;-86
2021/06/05 11:58:25;;;;;;;4.87;4.47;;;26.80;99.90;;;;;;5057751;28;20398;-85
2021/06/05 12:01:07;;;;;;;4.47;4.07;;;26.90;99.90;;;;;;5056003;28;20964;-85
2021/06/05 12:03:42;;;;;;;5.27;4.87;;;27.10;99.90;;;;;;5048185;28;20450;-85
2021/06/05 12:06:18;;;;;;;3.83;3.53;;;27.00;99.90;;;;;;5041978;28;20412;-85
2021/06/05 12:09:00;;;;;;;4.03;3.73;;;27.10;99.90;;;;;;5040387;28;20456;-85
2021/06/05 12:16:27;;;;;;;6.47;4.70;;;27.30;99.90;;;;;;5043066;28;20407;-85
2021/06/05 12:19:45;;;;;;;4.70;4.30;;;27.10;99.90;;;;;;5037661;28;20468;-84
2021/06/05 12:22:16;;;;;;;4.73;4.33;;;27.00;99.90;;;;;;5038820;28;20459;-85
2021/06/05 12:24:48;;;;;;;4.97;4.50;;;26.70;99.90;;;;;;5040469;28;20790;-86
2021/06/05 12:27:27;;;;;;;5.07;4.67;;;26.90;99.90;;;;;;5038111;28;20955;-85
2021/06/05 12:30:10;;;;;;;6.90;4.37;;;26.80;99.90;;;;;;5047369;28;20426;-87
2021/06/05 12:32:41;;;;;;;4.20;3.90;;;27.00;99.90;;;;;;5021203;28;20476;-83
2021/06/05 12:35:28;;;;;;;3.70;3.40;;;27.20;99.90;;;;;;5020432;28;20414;-84
2021/06/05 12:37:59;;;;;;;5.43;4.37;;;27.20;99.90;;;;;;5017928;28;20493;-83
2021/06/05 12:40:38;;;;;;;4.40;4.10;;;27.30;99.90;;;;;;5017758;28;20442;-83
2021/06/05 12:43:08;;;;;;;5.20;4.80;;;27.20;99.90;;;;;;5026468;28;20417;-85
2021/06/05 12:45:37;;;;;;;4.80;4.03;;;27.20;99.90;;;;;;5024136;28;20425;-84
2021/06/05 12:48:09;;;;;;;3.70;3.40;;;27.30;99.90;;;;;;5022164;28;20441;-83
2021/06/05 12:50:41;;;;;;;4.37;3.97;;;27.20;99.90;;;;;;5020915;28;20459;-85
2021/06/05 12:53:17;;;;;;;5.70;5.07;;;27.10;99.90;;;;;;5016851;28;20460;-84
2021/06/05 12:55:52;;;;;;;4.70;4.20;;;27.10;99.90;;;;;;5019590;28;20410;-84
2021/06/05 12:58:34;;;;;;;4.70;4.30;;;27.30;99.90;;;;;;5017946;28;20452;-83
2021/06/05 13:01:24;;;;;;;4.40;4.00;;;27.30;99.90;;;;;;5017476;28;20509;-83
2021/06/05 13:03:52;;;;;;;4.40;4.10;;;27.10;99.90;;;;;;5016183;28;20436;-84
2021/06/05 13:06:24;;;;;;;4.20;3.90;;;26.90;99.90;;;;;;5019811;28;20431;-83
2021/06/05 13:08:54;;;;;;;4.57;4.17;;;27.00;99.90;;;;;;5018868;28;20492;-85
2021/06/05 13:11:42;;;;;;;6.07;3.77;;;26.80;99.90;;;;;;5019135;28;20437;-84
2021/06/05 13:14:25;;;;;;;3.97;3.67;;;26.90;99.90;;;;;;5022040;28;20464;-85
2021/06/05 13:17:26;;;;;;;6.77;4.27;;;26.80;99.90;;;;;;5021749;28;20760;-84
2021/06/05 13:20:12;;;;;;;4.30;3.93;;;27.00;99.90;;;;;;5017226;28;20453;-84
2021/06/05 13:22:39;;;;;;;5.20;3.63;;;27.00;99.90;;;;;;5023250;28;20758;-84